createdAt,value
2017-11-24T00:02:39.357Z,65.90
2017-11-24T00:07:41.091Z,67.00
2017-11-24T00:12:42.084Z,66.90
2017-11-24T00:17:43.069Z,65.80
2017-11-24T00:22:44.045Z,65.70
2017-11-24T00:27:45.018Z,65.30
2017-11-24T00:32:46.013Z,65.70
2017-11-24T00:37:46.998Z,64.80
2017-11-24T00:42:47.961Z,64.90
2017-11-24T00:47:48.939Z,65.60
2017-11-24T00:52:49.918Z,64.30
2017-11-24T00:57:50.914Z,64.10
2017-11-24T01:02:51.874Z,64.20
2017-11-24T01:07:52.839Z,64.50
2017-11-24T01:12:53.832Z,64.60
2017-11-24T01:17:54.790Z,65.10
2017-11-24T01:22:56.509Z,64.10
2017-11-24T01:27:57.490Z,64.10
2017-11-24T01:32:58.478Z,63.00
2017-11-24T01:37:59.471Z,63.00
2017-11-24T01:43:00.450Z,63.00
2017-11-24T01:48:01.430Z,62.80
2017-11-24T01:53:02.422Z,63.20
2017-11-24T01:58:03.401Z,62.90
2017-11-24T02:03:04.366Z,63.50
2017-11-24T02:08:05.330Z,63.90
2017-11-24T02:13:07.058Z,63.60
2017-11-24T02:18:08.033Z,63.50
2017-11-24T02:23:08.998Z,63.90
2017-11-24T02:28:10.741Z,63.90
2017-11-24T02:33:11.729Z,63.90
2017-11-24T02:38:12.694Z,64.40
2017-11-24T02:43:13.670Z,64.10
2017-11-24T02:48:14.646Z,63.70
2017-11-24T02:53:15.631Z,63.00
2017-11-24T02:58:16.606Z,62.80
2017-11-24T03:03:17.599Z,62.50
2017-11-24T03:08:18.570Z,62.50
2017-11-24T03:13:19.564Z,62.30
2017-11-24T03:18:20.559Z,62.20
2017-11-24T03:23:22.290Z,62.60
2017-11-24T03:28:23.274Z,62.50
2017-11-24T03:33:24.265Z,62.20
2017-11-24T03:38:25.275Z,62.70
2017-11-24T03:43:26.241Z,62.60
2017-11-24T03:48:27.218Z,63.00
2017-11-24T03:53:28.205Z,62.70
2017-11-24T03:58:29.201Z,62.80
2017-11-24T04:03:30.171Z,62.90
2017-11-24T04:08:31.150Z,62.90
2017-11-24T04:13:32.118Z,63.70
2017-11-24T04:18:33.119Z,63.40
2017-11-24T04:23:34.086Z,63.30
2017-11-24T04:28:35.066Z,63.70
2017-11-24T04:33:36.120Z,63.40
2017-11-24T04:38:37.138Z,64.10
2017-11-24T04:43:38.155Z,63.90
2017-11-24T04:48:39.939Z,63.60
2017-11-24T04:53:40.960Z,63.50
2017-11-24T04:58:42.679Z,63.50
2017-11-24T05:03:43.676Z,63.40
2017-11-24T05:08:44.662Z,63.10
2017-11-24T05:13:45.668Z,62.90
2017-11-24T05:18:46.662Z,62.80
2017-11-24T05:23:47.642Z,63.00
2017-11-24T05:28:48.639Z,63.70
2017-11-24T05:33:50.361Z,64.70
2017-11-24T05:38:51.334Z,64.60
2017-11-24T05:43:52.356Z,69.30
2017-11-24T05:48:53.354Z,69.30
2017-11-24T05:53:54.379Z,67.50
2017-11-24T05:58:56.162Z,67.10
2017-11-24T06:03:57.882Z,66.60
2017-11-24T06:08:59.649Z,66.30
2017-11-24T06:14:00.658Z,66.20
2017-11-24T06:19:02.383Z,66.40
2017-11-24T06:24:03.345Z,66.40
2017-11-24T06:29:05.056Z,67.00
2017-11-24T06:34:06.046Z,66.90
2017-11-24T06:39:07.031Z,71.10
2017-11-24T06:44:08.006Z,72.00
2017-11-24T06:49:09.022Z,72.40
2017-11-24T06:54:10.011Z,73.40
2017-11-24T06:59:11.012Z,72.90
2017-11-24T07:04:12.039Z,71.50
2017-11-24T07:09:13.035Z,69.90
2017-11-24T07:14:14.030Z,70.60
2017-11-24T07:19:15.031Z,70.00
2017-11-24T07:24:16.031Z,67.80
2017-11-24T07:29:17.785Z,67.20
2017-11-24T07:34:18.777Z,66.30
2017-11-24T07:39:19.768Z,66.50
2017-11-24T07:44:20.757Z,65.60
2017-11-24T07:49:21.738Z,65.40
2017-11-24T07:54:22.709Z,65.60
2017-11-24T07:59:23.692Z,66.20
2017-11-24T08:04:24.670Z,65.50
2017-11-24T08:09:25.692Z,65.70
2017-11-24T08:14:27.438Z,64.90
2017-11-24T08:19:28.426Z,64.90
2017-11-24T08:24:29.400Z,64.80
2017-11-24T08:29:30.394Z,64.50
2017-11-24T08:34:31.417Z,64.00
2017-11-24T08:39:32.394Z,65.40
2017-11-24T08:44:33.390Z,65.10
2017-11-24T08:49:41.420Z,63.40
2017-11-24T08:54:42.382Z,63.30
2017-11-24T08:59:43.378Z,63.10
2017-11-24T09:04:44.399Z,63.40
2017-11-24T09:09:45.371Z,63.40
2017-11-24T09:14:47.085Z,63.70
2017-11-24T09:19:48.081Z,63.70
2017-11-24T09:24:49.101Z,63.70
2017-11-24T09:29:50.082Z,63.70
2017-11-24T09:34:51.090Z,64.10
2017-11-24T09:39:52.830Z,63.30
2017-11-24T09:44:53.870Z,63.30
2017-11-24T09:49:55.598Z,63.10
2017-11-24T09:54:56.578Z,63.10
2017-11-24T09:59:57.572Z,63.70
2017-11-24T10:04:58.550Z,64.20
2017-11-24T10:09:59.538Z,65.30
2017-11-24T10:15:00.538Z,65.90
2017-11-24T10:20:01.543Z,67.70
2017-11-24T10:25:02.536Z,68.80
2017-11-24T10:30:03.514Z,70.90
2017-11-24T10:35:04.498Z,71.10
2017-11-24T10:40:05.465Z,70.40
2017-11-24T10:45:06.460Z,71.00
2017-11-24T10:50:07.475Z,69.30
2017-11-24T10:55:09.187Z,67.70
2017-11-24T11:00:10.175Z,67.70
2017-11-24T11:05:11.185Z,67.30
2017-11-24T11:10:12.174Z,67.60
2017-11-24T11:15:13.186Z,68.00
2017-11-24T11:20:14.916Z,66.10
2017-11-24T11:25:15.885Z,65.80
2017-11-24T11:30:17.618Z,68.10
2017-11-24T11:35:18.624Z,68.10
2017-11-24T11:40:19.630Z,68.80
2017-11-24T11:45:20.618Z,70.60
2017-11-24T11:50:22.343Z,72.20
2017-11-24T11:55:23.360Z,72.20
2017-11-24T12:00:24.322Z,72.60
2017-11-24T12:05:25.332Z,73.00
2017-11-24T12:10:26.326Z,73.90
2017-11-24T12:15:27.313Z,72.80
2017-11-24T12:20:28.305Z,72.40
2017-11-24T12:25:29.301Z,72.80
2017-11-24T12:30:31.027Z,71.50
2017-11-24T12:35:32.019Z,71.50
2017-11-24T12:40:32.987Z,71.50
2017-11-24T12:45:33.946Z,71.30
2017-11-24T12:50:35.690Z,72.30
2017-11-24T12:55:36.678Z,72.30
2017-11-24T13:00:37.682Z,72.60
2017-11-24T13:05:38.727Z,73.00
2017-11-24T13:10:39.713Z,71.90
2017-11-24T13:15:40.723Z,72.30
2017-11-24T13:20:41.719Z,73.30
2017-11-24T13:25:42.711Z,74.30
2017-11-24T13:30:43.759Z,74.80
2017-11-24T13:35:44.760Z,75.40
2017-11-24T13:40:45.729Z,74.40
2017-11-24T13:45:46.750Z,73.70
2017-11-24T13:50:47.727Z,73.50
2017-11-24T13:55:49.452Z,73.00
2017-11-24T14:00:50.429Z,73.10
2017-11-24T14:05:51.400Z,71.80
2017-11-24T14:10:53.128Z,72.30
2017-11-24T14:15:54.941Z,75.20
2017-11-24T14:20:55.896Z,74.80
2017-11-24T14:25:57.607Z,76.20
2017-11-24T14:30:58.610Z,76.20
2017-11-24T14:35:59.587Z,77.10
2017-11-24T14:41:00.563Z,78.20
2017-11-24T14:46:01.534Z,79.00
2017-11-24T14:51:02.535Z,79.50
2017-11-24T14:56:03.533Z,81.50
2017-11-24T15:01:04.583Z,82.60
2017-11-24T15:06:05.578Z,84.10
2017-11-24T15:11:07.604Z,86.50
2017-11-24T15:16:08.581Z,86.60
2017-11-24T15:21:10.314Z,88.00
2017-11-24T15:26:11.285Z,88.10
2017-11-24T15:31:12.274Z,88.20
2017-11-24T15:36:13.270Z,89.00
2017-11-24T15:41:14.286Z,89.20
2017-11-24T15:46:15.258Z,90.60
2017-11-24T15:51:16.246Z,91.20
2017-11-24T15:56:17.227Z,93.60
2017-11-24T16:01:18.215Z,94.90
2017-11-24T16:06:19.935Z,99.90
2017-11-24T16:11:21.986Z,99.90
2017-11-24T16:16:23.694Z,99.90
2017-11-24T16:21:24.755Z,99.90
2017-11-24T16:26:25.755Z,99.90
2017-11-24T16:31:26.742Z,99.90
2017-11-24T16:36:27.776Z,99.90
2017-11-24T16:41:29.562Z,99.90
2017-11-24T16:46:30.716Z,99.90
2017-11-24T16:51:31.730Z,99.90
2017-11-24T16:56:32.882Z,99.90
2017-11-24T17:01:33.895Z,99.90
2017-11-24T17:06:35.691Z,99.90
2017-11-24T17:11:36.946Z,99.90
2017-11-24T17:16:37.984Z,99.90
2017-11-24T17:21:39.831Z,99.90
2017-11-24T17:26:40.814Z,99.90
2017-11-24T17:31:41.966Z,99.90
2017-11-24T17:36:43.045Z,99.90
2017-11-24T17:41:44.068Z,99.90
2017-11-24T17:46:45.091Z,99.90
2017-11-24T17:51:46.061Z,99.90
2017-11-24T17:56:47.072Z,99.90
2017-11-24T18:01:48.795Z,99.90
2017-11-24T18:06:49.778Z,99.90
2017-11-24T18:11:50.754Z,99.90
2017-11-24T18:16:51.746Z,99.90
2017-11-24T18:21:52.794Z,99.90
2017-11-24T18:26:54.507Z,99.90
2017-11-24T18:31:55.502Z,99.90
2017-11-24T18:36:56.477Z,99.90
2017-11-24T18:41:57.472Z,99.90
2017-11-24T18:46:58.483Z,99.90
2017-11-24T18:51:59.472Z,99.90
2017-11-24T18:57:00.478Z,99.90
2017-11-24T19:02:01.478Z,99.90
2017-11-24T19:07:03.215Z,99.90
2017-11-24T19:12:04.278Z,99.90
2017-11-24T19:17:05.263Z,99.90
2017-11-24T19:22:06.242Z,99.90
2017-11-24T19:27:07.281Z,99.90
2017-11-24T19:32:08.363Z,99.90
2017-11-24T19:37:10.206Z,99.90
2017-11-24T19:42:11.222Z,99.90
2017-11-24T19:47:12.319Z,99.90
2017-11-24T19:52:13.411Z,99.90
2017-11-24T19:57:14.443Z,99.90
2017-11-24T20:02:15.526Z,99.90
2017-11-24T20:07:16.602Z,99.90
2017-11-24T20:12:17.724Z,99.90
2017-11-24T20:17:18.799Z,99.90
2017-11-24T20:22:20.019Z,99.90
2017-11-24T20:27:21.151Z,99.90
2017-11-24T20:32:22.227Z,99.90
2017-11-24T20:37:23.359Z,99.90
2017-11-24T20:42:24.411Z,99.90
2017-11-24T20:47:25.445Z,99.90
2017-11-24T20:52:27.215Z,99.90
2017-11-24T20:57:28.197Z,99.90
2017-11-24T21:02:29.254Z,99.90
2017-11-24T21:07:30.330Z,99.90
2017-11-24T21:12:31.430Z,99.90
2017-11-24T21:17:32.510Z,99.90
2017-11-24T21:22:33.510Z,99.90
2017-11-24T21:27:34.671Z,99.90
2017-11-24T21:32:35.729Z,99.90
2017-11-24T21:37:36.870Z,99.90
2017-11-24T21:42:38.027Z,99.90
2017-11-24T21:47:39.105Z,99.90
2017-11-24T21:52:40.146Z,99.90
2017-11-24T21:57:41.147Z,99.90
2017-11-24T22:02:42.126Z,99.90
2017-11-24T22:07:43.139Z,99.90
2017-11-24T22:12:44.123Z,99.90
2017-11-24T22:17:45.222Z,99.90
2017-11-24T22:22:46.271Z,99.90
2017-11-24T22:27:48.162Z,99.90
2017-11-24T22:32:49.157Z,99.90
2017-11-24T22:37:50.123Z,99.90
2017-11-24T22:42:51.098Z,99.90
2017-11-24T22:47:52.090Z,99.90
2017-11-24T22:52:53.133Z,99.90
2017-11-24T22:57:54.119Z,99.90
2017-11-24T23:02:55.117Z,99.90
2017-11-24T23:07:56.110Z,99.90
2017-11-24T23:12:57.102Z,99.90
2017-11-24T23:17:58.085Z,99.90
2017-11-24T23:22:59.070Z,99.90
2017-11-24T23:28:00.061Z,99.90
2017-11-24T23:33:01.810Z,99.90
2017-11-24T23:38:02.806Z,99.90
2017-11-24T23:43:03.782Z,99.90
2017-11-24T23:48:04.781Z,99.90
2017-11-24T23:53:05.758Z,99.90
2017-11-24T23:58:06.781Z,99.90
